sensor_id;sensor_type;location;lat;lon;timestamp;P1;durP1;ratioP1;P2;durP2;ratioP2
59998;SDS011;45859;51.378;6.736;2022-09-21T00:00:23;2.90;;;2.17;;
59998;SDS011;45859;51.378;6.736;2022-09-21T00:02:49;6.17;;;2.83;;
59998;SDS011;45859;51.378;6.736;2022-09-21T00:05:15;10.70;;;7.43;;
59998;SDS011;45859;51.378;6.736;2022-09-21T00:07:41;8.87;;;4.03;;
59998;SDS011;45859;51.378;6.736;2022-09-21T00:10:10;7.47;;;4.10;;
59998;SDS011;45859;51.378;6.736;2022-09-21T00:12:38;9.67;;;3.83;;
59998;SDS011;45859;51.378;6.736;2022-09-21T00:15:05;9.37;;;3.40;;
59998;SDS011;45859;51.378;6.736;2022-09-21T00:17:32;6.93;;;3.77;;
59998;SDS011;45859;51.378;6.736;2022-09-21T00:19:58;10.03;;;3.90;;
59998;SDS011;45859;51.378;6.736;2022-09-21T00:22:26;9.17;;;3.63;;
59998;SDS011;45859;51.378;6.736;2022-09-21T00:24:52;14.33;;;4.10;;
59998;SDS011;45859;51.378;6.736;2022-09-21T00:27:18;9.00;;;3.63;;
59998;SDS011;45859;51.378;6.736;2022-09-21T00:29:44;8.97;;;4.00;;
59998;SDS011;45859;51.378;6.736;2022-09-21T00:32:09;11.87;;;4.17;;
59998;SDS011;45859;51.378;6.736;2022-09-21T00:34:35;7.23;;;3.63;;
59998;SDS011;45859;51.378;6.736;2022-09-21T00:37:01;13.47;;;3.63;;
59998;SDS011;45859;51.378;6.736;2022-09-21T00:39:26;10.43;;;4.07;;
59998;SDS011;45859;51.378;6.736;2022-09-21T00:41:52;16.63;;;8.87;;
59998;SDS011;45859;51.378;6.736;2022-09-21T00:47:01;11.53;;;3.93;;
59998;SDS011;45859;51.378;6.736;2022-09-21T00:49:32;10.47;;;4.00;;
59998;SDS011;45859;51.378;6.736;2022-09-21T00:52:00;9.87;;;4.70;;
59998;SDS011;45859;51.378;6.736;2022-09-21T00:54:30;8.27;;;3.63;;
59998;SDS011;45859;51.378;6.736;2022-09-21T00:57:07;9.63;;;4.23;;
59998;SDS011;45859;51.378;6.736;2022-09-21T00:59:34;7.40;;;4.13;;
59998;SDS011;45859;51.378;6.736;2022-09-21T01:02:02;13.17;;;5.43;;
59998;SDS011;45859;51.378;6.736;2022-09-21T01:04:30;12.70;;;4.60;;
59998;SDS011;45859;51.378;6.736;2022-09-21T01:06:57;10.30;;;3.83;;
59998;SDS011;45859;51.378;6.736;2022-09-21T01:09:29;13.53;;;4.60;;
59998;SDS011;45859;51.378;6.736;2022-09-21T01:18:00;10.73;;;4.10;;
59998;SDS011;45859;51.378;6.736;2022-09-21T01:26:10;7.50;;;2.57;;
59998;SDS011;45859;51.378;6.736;2022-09-21T01:32:10;7.67;;;3.37;;
59998;SDS011;45859;51.378;6.736;2022-09-21T01:34:51;6.03;;;3.00;;
59998;SDS011;45859;51.378;6.736;2022-09-21T01:37:26;10.77;;;3.45;;
59998;SDS011;45859;51.378;6.736;2022-09-21T01:39:58;5.83;;;2.80;;
59998;SDS011;45859;51.378;6.736;2022-09-21T01:42:27;7.32;;;3.03;;
59998;SDS011;45859;51.378;6.736;2022-09-21T01:44:54;6.23;;;2.80;;
59998;SDS011;45859;51.378;6.736;2022-09-21T01:47:22;7.00;;;2.97;;
59998;SDS011;45859;51.378;6.736;2022-09-21T01:49:50;6.13;;;2.83;;
59998;SDS011;45859;51.378;6.736;2022-09-21T01:52:21;8.00;;;3.08;;
59998;SDS011;45859;51.378;6.736;2022-09-21T01:55:00;8.67;;;3.17;;
59998;SDS011;45859;51.378;6.736;2022-09-21T01:57:37;9.93;;;3.87;;
59998;SDS011;45859;51.378;6.736;2022-09-21T02:00:09;7.73;;;3.23;;
59998;SDS011;45859;51.378;6.736;2022-09-21T02:02:37;6.80;;;3.57;;
59998;SDS011;45859;51.378;6.736;2022-09-21T02:05:32;10.10;;;2.93;;
59998;SDS011;45859;51.378;6.736;2022-09-21T02:07:58;5.60;;;2.57;;
59998;SDS011;45859;51.378;6.736;2022-09-21T02:10:35;6.27;;;2.00;;
59998;SDS011;45859;51.378;6.736;2022-09-21T02:15:59;4.87;;;2.93;;
59998;SDS011;45859;51.378;6.736;2022-09-21T02:35:10;9.13;;;2.93;;
59998;SDS011;45859;51.378;6.736;2022-09-21T02:43:02;5.37;;;1.93;;
59998;SDS011;45859;51.378;6.736;2022-09-21T02:45:44;5.20;;;2.70;;
59998;SDS011;45859;51.378;6.736;2022-09-21T02:48:20;8.70;;;3.27;;
59998;SDS011;45859;51.378;6.736;2022-09-21T02:50:56;5.70;;;2.70;;
59998;SDS011;45859;51.378;6.736;2022-09-21T02:53:28;4.33;;;3.23;;
59998;SDS011;45859;51.378;6.736;2022-09-21T02:55:57;5.33;;;2.50;;
59998;SDS011;45859;51.378;6.736;2022-09-21T02:58:27;6.03;;;2.97;;
59998;SDS011;45859;51.378;6.736;2022-09-21T03:00:55;4.17;;;2.60;;
59998;SDS011;45859;51.378;6.736;2022-09-21T03:03:23;6.00;;;2.83;;
59998;SDS011;45859;51.378;6.736;2022-09-21T03:05:52;6.00;;;2.73;;
59998;SDS011;45859;51.378;6.736;2022-09-21T03:08:19;4.33;;;2.50;;
59998;SDS011;45859;51.378;6.736;2022-09-21T03:10:45;7.33;;;3.50;;
59998;SDS011;45859;51.378;6.736;2022-09-21T03:13:12;6.53;;;3.40;;
59998;SDS011;45859;51.378;6.736;2022-09-21T03:15:38;6.00;;;2.60;;
59998;SDS011;45859;51.378;6.736;2022-09-21T03:18:05;3.30;;;2.57;;
59998;SDS011;45859;51.378;6.736;2022-09-21T03:20:33;6.03;;;3.07;;
59998;SDS011;45859;51.378;6.736;2022-09-21T03:23:00;8.07;;;2.93;;
59998;SDS011;45859;51.378;6.736;2022-09-21T03:25:26;6.07;;;2.83;;
59998;SDS011;45859;51.378;6.736;2022-09-21T03:27:53;5.63;;;3.07;;
59998;SDS011;45859;51.378;6.736;2022-09-21T03:30:20;8.13;;;2.63;;
59998;SDS011;45859;51.378;6.736;2022-09-21T03:32:49;5.20;;;2.70;;
59998;SDS011;45859;51.378;6.736;2022-09-21T03:35:16;4.47;;;2.72;;
59998;SDS011;45859;51.378;6.736;2022-09-21T03:37:42;4.13;;;2.67;;
59998;SDS011;45859;51.378;6.736;2022-09-21T03:40:09;6.20;;;2.60;;
59998;SDS011;45859;51.378;6.736;2022-09-21T03:42:36;7.67;;;2.93;;
59998;SDS011;45859;51.378;6.736;2022-09-21T03:45:03;6.60;;;2.77;;
59998;SDS011;45859;51.378;6.736;2022-09-21T03:47:29;9.30;;;2.63;;
59998;SDS011;45859;51.378;6.736;2022-09-21T03:49:55;10.93;;;2.63;;
59998;SDS011;45859;51.378;6.736;2022-09-21T03:52:21;5.50;;;2.40;;
59998;SDS011;45859;51.378;6.736;2022-09-21T03:54:50;5.43;;;2.70;;
59998;SDS011;45859;51.378;6.736;2022-09-21T03:57:15;5.70;;;2.60;;
59998;SDS011;45859;51.378;6.736;2022-09-21T03:59:41;5.13;;;2.37;;
59998;SDS011;45859;51.378;6.736;2022-09-21T04:02:10;4.50;;;2.50;;
59998;SDS011;45859;51.378;6.736;2022-09-21T04:04:39;6.83;;;2.70;;
59998;SDS011;45859;51.378;6.736;2022-09-21T04:07:05;4.00;;;2.33;;
59998;SDS011;45859;51.378;6.736;2022-09-21T04:09:31;5.23;;;2.40;;
59998;SDS011;45859;51.378;6.736;2022-09-21T04:11:56;8.40;;;3.37;;
59998;SDS011;45859;51.378;6.736;2022-09-21T04:14:22;7.43;;;2.80;;
59998;SDS011;45859;51.378;6.736;2022-09-21T04:16:48;8.93;;;2.50;;
59998;SDS011;45859;51.378;6.736;2022-09-21T04:19:16;5.80;;;2.77;;
59998;SDS011;45859;51.378;6.736;2022-09-21T04:21:42;5.33;;;2.80;;
59998;SDS011;45859;51.378;6.736;2022-09-21T04:24:07;4.90;;;2.57;;
59998;SDS011;45859;51.378;6.736;2022-09-21T04:26:34;6.77;;;2.50;;
59998;SDS011;45859;51.378;6.736;2022-09-21T04:29:00;6.47;;;2.70;;
59998;SDS011;45859;51.378;6.736;2022-09-21T04:31:27;7.13;;;2.63;;
59998;SDS011;45859;51.378;6.736;2022-09-21T04:33:54;5.83;;;3.10;;
59998;SDS011;45859;51.378;6.736;2022-09-21T04:36:24;4.67;;;2.87;;
59998;SDS011;45859;51.378;6.736;2022-09-21T04:38:52;5.70;;;2.63;;
59998;SDS011;45859;51.378;6.736;2022-09-21T04:41:17;7.07;;;2.80;;
59998;SDS011;45859;51.378;6.736;2022-09-21T04:43:44;8.37;;;3.17;;
59998;SDS011;45859;51.378;6.736;2022-09-21T04:46:19;7.40;;;3.27;;
59998;SDS011;45859;51.378;6.736;2022-09-21T04:48:45;5.33;;;3.00;;
59998;SDS011;45859;51.378;6.736;2022-09-21T04:51:12;8.87;;;2.60;;
59998;SDS011;45859;51.378;6.736;2022-09-21T04:53:39;6.87;;;3.00;;
59998;SDS011;45859;51.378;6.736;2022-09-21T04:56:06;8.53;;;3.17;;
59998;SDS011;45859;51.378;6.736;2022-09-21T04:58:33;4.40;;;3.23;;
59998;SDS011;45859;51.378;6.736;2022-09-21T05:00:59;5.40;;;3.03;;
59998;SDS011;45859;51.378;6.736;2022-09-21T05:03:25;3.07;;;2.40;;
59998;SDS011;45859;51.378;6.736;2022-09-21T05:05:52;5.57;;;2.67;;
59998;SDS011;45859;51.378;6.736;2022-09-21T05:08:20;4.93;;;2.37;;
59998;SDS011;45859;51.378;6.736;2022-09-21T05:11:05;5.07;;;2.37;;
59998;SDS011;45859;51.378;6.736;2022-09-21T05:13:31;4.80;;;2.63;;
59998;SDS011;45859;51.378;6.736;2022-09-21T05:15:57;6.10;;;2.70;;
59998;SDS011;45859;51.378;6.736;2022-09-21T05:18:22;4.80;;;2.90;;
59998;SDS011;45859;51.378;6.736;2022-09-21T05:20:58;5.73;;;3.23;;
59998;SDS011;45859;51.378;6.736;2022-09-21T05:23:25;5.03;;;2.30;;
59998;SDS011;45859;51.378;6.736;2022-09-21T05:25:53;6.67;;;3.00;;
59998;SDS011;45859;51.378;6.736;2022-09-21T05:28:19;5.43;;;2.77;;
59998;SDS011;45859;51.378;6.736;2022-09-21T05:30:52;9.13;;;3.30;;
59998;SDS011;45859;51.378;6.736;2022-09-21T05:33:21;10.27;;;2.97;;
59998;SDS011;45859;51.378;6.736;2022-09-21T05:36:01;6.03;;;2.87;;
59998;SDS011;45859;51.378;6.736;2022-09-21T05:38:49;3.80;;;2.45;;
59998;SDS011;45859;51.378;6.736;2022-09-21T05:41:15;3.90;;;2.77;;
59998;SDS011;45859;51.378;6.736;2022-09-21T05:43:41;11.47;;;3.03;;
59998;SDS011;45859;51.378;6.736;2022-09-21T05:46:10;6.90;;;2.77;;
59998;SDS011;45859;51.378;6.736;2022-09-21T05:48:57;7.17;;;2.60;;
59998;SDS011;45859;51.378;6.736;2022-09-21T05:57:06;3.65;;;2.88;;
59998;SDS011;45859;51.378;6.736;2022-09-21T06:04:50;7.55;;;3.38;;
59998;SDS011;45859;51.378;6.736;2022-09-21T06:07:18;11.03;;;3.30;;
59998;SDS011;45859;51.378;6.736;2022-09-21T06:09:44;7.30;;;2.83;;
59998;SDS011;45859;51.378;6.736;2022-09-21T06:12:09;7.47;;;3.60;;
59998;SDS011;45859;51.378;6.736;2022-09-21T06:14:35;9.50;;;4.13;;
59998;SDS011;45859;51.378;6.736;2022-09-21T06:17:01;5.27;;;3.17;;
59998;SDS011;45859;51.378;6.736;2022-09-21T06:19:27;6.43;;;3.73;;
59998;SDS011;45859;51.378;6.736;2022-09-21T06:21:56;6.20;;;3.43;;
59998;SDS011;45859;51.378;6.736;2022-09-21T06:24:22;5.77;;;3.43;;
59998;SDS011;45859;51.378;6.736;2022-09-21T06:26:48;13.40;;;3.73;;
59998;SDS011;45859;51.378;6.736;2022-09-21T06:29:13;7.50;;;3.77;;
59998;SDS011;45859;51.378;6.736;2022-09-21T06:31:39;8.27;;;3.73;;
59998;SDS011;45859;51.378;6.736;2022-09-21T06:34:05;7.30;;;3.50;;
59998;SDS011;45859;51.378;6.736;2022-09-21T06:36:31;7.27;;;3.10;;
59998;SDS011;45859;51.378;6.736;2022-09-21T06:38:56;6.70;;;3.47;;
59998;SDS011;45859;51.378;6.736;2022-09-21T06:41:22;8.90;;;5.27;;
59998;SDS011;45859;51.378;6.736;2022-09-21T06:43:48;7.30;;;4.50;;
59998;SDS011;45859;51.378;6.736;2022-09-21T06:46:17;6.73;;;5.00;;
59998;SDS011;45859;51.378;6.736;2022-09-21T06:48:42;7.93;;;4.23;;
59998;SDS011;45859;51.378;6.736;2022-09-21T06:51:08;9.00;;;5.17;;
59998;SDS011;45859;51.378;6.736;2022-09-21T06:53:34;10.23;;;5.30;;
59998;SDS011;45859;51.378;6.736;2022-09-21T06:56:09;6.38;;;4.90;;
59998;SDS011;45859;51.378;6.736;2022-09-21T06:58:35;11.63;;;5.82;;
59998;SDS011;45859;51.378;6.736;2022-09-21T07:01:11;8.25;;;5.93;;
59998;SDS011;45859;51.378;6.736;2022-09-21T07:03:37;10.27;;;6.57;;
59998;SDS011;45859;51.378;6.736;2022-09-21T07:06:05;12.07;;;6.70;;
59998;SDS011;45859;51.378;6.736;2022-09-21T07:08:32;11.53;;;6.73;;
59998;SDS011;45859;51.378;6.736;2022-09-21T07:11:00;9.17;;;6.80;;
59998;SDS011;45859;51.378;6.736;2022-09-21T07:13:27;9.65;;;6.25;;
59998;SDS011;45859;51.378;6.736;2022-09-21T07:15:53;9.63;;;6.63;;
59998;SDS011;45859;51.378;6.736;2022-09-21T07:18:19;8.00;;;5.57;;
59998;SDS011;45859;51.378;6.736;2022-09-21T07:20:46;8.50;;;5.63;;
59998;SDS011;45859;51.378;6.736;2022-09-21T07:23:16;11.38;;;5.82;;
59998;SDS011;45859;51.378;6.736;2022-09-21T07:25:44;11.63;;;5.97;;
59998;SDS011;45859;51.378;6.736;2022-09-21T07:28:16;9.55;;;5.43;;
59998;SDS011;45859;51.378;6.736;2022-09-21T07:30:42;7.55;;;5.35;;
59998;SDS011;45859;51.378;6.736;2022-09-21T07:33:09;9.65;;;5.55;;
59998;SDS011;45859;51.378;6.736;2022-09-21T07:35:38;7.38;;;5.30;;
59998;SDS011;45859;51.378;6.736;2022-09-21T07:38:05;8.82;;;5.80;;
59998;SDS011;45859;51.378;6.736;2022-09-21T07:40:32;9.90;;;5.25;;
59998;SDS011;45859;51.378;6.736;2022-09-21T07:42:58;9.50;;;6.10;;
59998;SDS011;45859;51.378;6.736;2022-09-21T07:45:26;11.02;;;6.30;;
59998;SDS011;45859;51.378;6.736;2022-09-21T07:47:53;9.52;;;6.40;;
59998;SDS011;45859;51.378;6.736;2022-09-21T07:50:20;11.45;;;6.00;;
59998;SDS011;45859;51.378;6.736;2022-09-21T07:52:46;9.35;;;6.13;;
59998;SDS011;45859;51.378;6.736;2022-09-21T07:55:12;9.18;;;6.25;;
59998;SDS011;45859;51.378;6.736;2022-09-21T07:57:38;11.07;;;6.68;;
59998;SDS011;45859;51.378;6.736;2022-09-21T08:00:23;10.82;;;6.47;;
59998;SDS011;45859;51.378;6.736;2022-09-21T08:02:49;9.50;;;6.80;;
59998;SDS011;45859;51.378;6.736;2022-09-21T08:05:15;10.23;;;7.00;;
59998;SDS011;45859;51.378;6.736;2022-09-21T08:07:40;9.20;;;6.95;;
59998;SDS011;45859;51.378;6.736;2022-09-21T08:10:07;8.30;;;6.20;;
59998;SDS011;45859;51.378;6.736;2022-09-21T08:12:33;8.10;;;6.30;;
59998;SDS011;45859;51.378;6.736;2022-09-21T08:14:59;11.18;;;6.97;;
59998;SDS011;45859;51.378;6.736;2022-09-21T08:17:25;8.63;;;5.95;;
59998;SDS011;45859;51.378;6.736;2022-09-21T08:19:50;10.98;;;6.57;;
59998;SDS011;45859;51.378;6.736;2022-09-21T08:22:17;10.20;;;6.70;;
59998;SDS011;45859;51.378;6.736;2022-09-21T08:24:48;9.55;;;5.82;;
59998;SDS011;45859;51.378;6.736;2022-09-21T08:27:14;9.70;;;5.80;;
59998;SDS011;45859;51.378;6.736;2022-09-21T08:29:40;9.48;;;6.03;;
59998;SDS011;45859;51.378;6.736;2022-09-21T08:32:06;8.40;;;6.00;;
59998;SDS011;45859;51.378;6.736;2022-09-21T08:34:32;11.60;;;6.32;;
59998;SDS011;45859;51.378;6.736;2022-09-21T08:36:57;10.30;;;6.22;;
59998;SDS011;45859;51.378;6.736;2022-09-21T08:39:24;11.05;;;6.10;;
59998;SDS011;45859;51.378;6.736;2022-09-21T08:41:52;10.82;;;6.65;;
59998;SDS011;45859;51.378;6.736;2022-09-21T08:45:03;9.55;;;5.72;;
59998;SDS011;45859;51.378;6.736;2022-09-21T08:49:58;8.57;;;6.10;;
59998;SDS011;45859;51.378;6.736;2022-09-21T08:52:26;8.27;;;5.80;;
59998;SDS011;45859;51.378;6.736;2022-09-21T08:54:57;9.63;;;5.50;;
59998;SDS011;45859;51.378;6.736;2022-09-21T08:57:30;8.35;;;5.72;;
59998;SDS011;45859;51.378;6.736;2022-09-21T08:59:57;9.10;;;6.13;;
59998;SDS011;45859;51.378;6.736;2022-09-21T09:11:00;8.13;;;5.20;;
59998;SDS011;45859;51.378;6.736;2022-09-21T09:14:19;8.38;;;5.03;;
59998;SDS011;45859;51.378;6.736;2022-09-21T09:22:09;8.63;;;5.68;;
59998;SDS011;45859;51.378;6.736;2022-09-21T09:24:49;9.30;;;4.95;;
59998;SDS011;45859;51.378;6.736;2022-09-21T09:29:53;7.72;;;4.90;;
59998;SDS011;45859;51.378;6.736;2022-09-21T09:32:26;10.35;;;5.53;;
59998;SDS011;45859;51.378;6.736;2022-09-21T09:37:58;8.45;;;4.65;;
59998;SDS011;45859;51.378;6.736;2022-09-21T09:40:46;9.40;;;5.32;;
59998;SDS011;45859;51.378;6.736;2022-09-21T09:51:32;8.50;;;4.13;;
59998;SDS011;45859;51.378;6.736;2022-09-21T09:54:00;9.05;;;3.85;;
59998;SDS011;45859;51.378;6.736;2022-09-21T09:56:29;5.78;;;3.58;;
59998;SDS011;45859;51.378;6.736;2022-09-21T09:58:56;6.05;;;3.55;;
59998;SDS011;45859;51.378;6.736;2022-09-21T10:01:40;6.70;;;2.70;;
59998;SDS011;45859;51.378;6.736;2022-09-21T10:04:11;5.07;;;3.30;;
59998;SDS011;45859;51.378;6.736;2022-09-21T10:06:38;7.07;;;3.72;;
59998;SDS011;45859;51.378;6.736;2022-09-21T10:09:24;8.90;;;6.35;;
59998;SDS011;45859;51.378;6.736;2022-09-21T10:11:51;6.13;;;2.45;;
59998;SDS011;45859;51.378;6.736;2022-09-21T10:14:19;4.57;;;2.80;;
59998;SDS011;45859;51.378;6.736;2022-09-21T10:16:51;4.30;;;1.08;;
59998;SDS011;45859;51.378;6.736;2022-09-21T10:19:22;3.75;;;1.52;;
59998;SDS011;45859;51.378;6.736;2022-09-21T10:21:52;9.15;;;2.08;;
59998;SDS011;45859;51.378;6.736;2022-09-21T10:24:27;4.43;;;1.83;;
59998;SDS011;45859;51.378;6.736;2022-09-21T10:29:49;6.47;;;2.40;;
59998;SDS011;45859;51.378;6.736;2022-09-21T10:37:47;4.65;;;2.00;;
59998;SDS011;45859;51.378;6.736;2022-09-21T10:42:50;4.03;;;2.08;;
59998;SDS011;45859;51.378;6.736;2022-09-21T10:45:29;5.07;;;2.10;;
59998;SDS011;45859;51.378;6.736;2022-09-21T10:50:34;4.22;;;1.55;;
59998;SDS011;45859;51.378;6.736;2022-09-21T10:56:05;5.38;;;1.75;;
59998;SDS011;45859;51.378;6.736;2022-09-21T10:58:39;4.53;;;1.45;;
59998;SDS011;45859;51.378;6.736;2022-09-21T11:01:25;2.85;;;1.52;;
59998;SDS011;45859;51.378;6.736;2022-09-21T11:04:07;3.40;;;1.50;;
59998;SDS011;45859;51.378;6.736;2022-09-21T11:06:52;4.53;;;1.30;;
59998;SDS011;45859;51.378;6.736;2022-09-21T11:15:50;3.15;;;1.30;;
59998;SDS011;45859;51.378;6.736;2022-09-21T11:18:45;6.63;;;1.83;;
59998;SDS011;45859;51.378;6.736;2022-09-21T11:23:57;4.85;;;1.50;;
59998;SDS011;45859;51.378;6.736;2022-09-21T11:26:45;4.97;;;1.52;;
59998;SDS011;45859;51.378;6.736;2022-09-21T11:29:23;5.35;;;1.50;;
59998;SDS011;45859;51.378;6.736;2022-09-21T11:35:04;2.72;;;1.25;;
59998;SDS011;45859;51.378;6.736;2022-09-21T11:38:03;3.85;;;1.00;;
59998;SDS011;45859;51.378;6.736;2022-09-21T11:46:09;2.58;;;0.85;;
59998;SDS011;45859;51.378;6.736;2022-09-21T12:05:43;4.10;;;1.00;;
59998;SDS011;45859;51.378;6.736;2022-09-21T12:22:33;3.63;;;1.05;;
59998;SDS011;45859;51.378;6.736;2022-09-21T12:25:04;2.53;;;0.55;;
59998;SDS011;45859;51.378;6.736;2022-09-21T12:27:38;3.28;;;0.70;;
59998;SDS011;45859;51.378;6.736;2022-09-21T12:30:21;2.60;;;1.00;;
59998;SDS011;45859;51.378;6.736;2022-09-21T12:32:56;2.45;;;1.05;;
59998;SDS011;45859;51.378;6.736;2022-09-21T12:38:12;2.22;;;0.90;;
59998;SDS011;45859;51.378;6.736;2022-09-21T12:46:48;3.90;;;1.13;;
59998;SDS011;45859;51.378;6.736;2022-09-21T12:49:33;4.20;;;1.27;;
59998;SDS011;45859;51.378;6.736;2022-09-21T12:52:09;5.37;;;1.00;;
59998;SDS011;45859;51.378;6.736;2022-09-21T13:00:33;2.73;;;0.80;;
59998;SDS011;45859;51.378;6.736;2022-09-21T13:05:56;1.70;;;0.90;;
59998;SDS011;45859;51.378;6.736;2022-09-21T13:08:33;4.70;;;1.20;;
59998;SDS011;45859;51.378;6.736;2022-09-21T13:11:05;1.80;;;0.70;;
59998;SDS011;45859;51.378;6.736;2022-09-21T13:15:57;2.58;;;0.68;;
59998;SDS011;45859;51.378;6.736;2022-09-21T13:21:00;4.33;;;0.73;;
59998;SDS011;45859;51.378;6.736;2022-09-21T13:23:40;3.77;;;0.70;;
59998;SDS011;45859;51.378;6.736;2022-09-21T13:26:07;1.53;;;0.60;;
59998;SDS011;45859;51.378;6.736;2022-09-21T13:28:39;3.90;;;0.83;;
59998;SDS011;45859;51.378;6.736;2022-09-21T13:39:35;4.10;;;1.00;;
59998;SDS011;45859;51.378;6.736;2022-09-21T13:47:39;3.07;;;1.00;;
59998;SDS011;45859;51.378;6.736;2022-09-21T13:50:30;5.80;;;1.10;;
59998;SDS011;45859;51.378;6.736;2022-09-21T13:53:25;4.80;;;1.00;;
59998;SDS011;45859;51.378;6.736;2022-09-21T13:56:00;4.40;;;1.20;;
59998;SDS011;45859;51.378;6.736;2022-09-21T13:58:33;5.05;;;1.50;;
59998;SDS011;45859;51.378;6.736;2022-09-21T14:01:16;3.78;;;1.50;;
59998;SDS011;45859;51.378;6.736;2022-09-21T14:03:49;2.95;;;1.00;;
59998;SDS011;45859;51.378;6.736;2022-09-21T14:06:20;3.75;;;1.50;;
59998;SDS011;45859;51.378;6.736;2022-09-21T14:08:59;4.68;;;1.50;;
59998;SDS011;45859;51.378;6.736;2022-09-21T14:11:32;4.57;;;1.67;;
59998;SDS011;45859;51.378;6.736;2022-09-21T14:14:12;3.22;;;1.83;;
59998;SDS011;45859;51.378;6.736;2022-09-21T14:16:49;2.95;;;1.55;;
59998;SDS011;45859;51.378;6.736;2022-09-21T14:35:39;3.83;;;0.85;;
59998;SDS011;45859;51.378;6.736;2022-09-21T14:38:17;2.10;;;0.82;;
59998;SDS011;45859;51.378;6.736;2022-09-21T14:40:47;2.37;;;0.97;;
59998;SDS011;45859;51.378;6.736;2022-09-21T14:43:16;2.20;;;0.90;;
59998;SDS011;45859;51.378;6.736;2022-09-21T14:45:53;3.30;;;1.00;;
59998;SDS011;45859;51.378;6.736;2022-09-21T15:02:38;2.78;;;1.10;;
59998;SDS011;45859;51.378;6.736;2022-09-21T15:05:11;2.75;;;1.15;;
59998;SDS011;45859;51.378;6.736;2022-09-21T15:18:41;3.55;;;0.88;;
59998;SDS011;45859;51.378;6.736;2022-09-21T15:21:24;2.95;;;0.90;;
59998;SDS011;45859;51.378;6.736;2022-09-21T15:23:51;3.58;;;0.90;;
59998;SDS011;45859;51.378;6.736;2022-09-21T15:26:22;3.38;;;1.10;;
59998;SDS011;45859;51.378;6.736;2022-09-21T15:29:03;3.33;;;0.85;;
59998;SDS011;45859;51.378;6.736;2022-09-21T15:31:33;4.50;;;1.55;;
59998;SDS011;45859;51.378;6.736;2022-09-21T15:34:03;2.42;;;0.77;;
59998;SDS011;45859;51.378;6.736;2022-09-21T15:36:35;2.25;;;1.02;;
59998;SDS011;45859;51.378;6.736;2022-09-21T15:39:02;3.72;;;1.15;;
59998;SDS011;45859;51.378;6.736;2022-09-21T15:41:41;2.67;;;1.23;;
59998;SDS011;45859;51.378;6.736;2022-09-21T15:44:22;2.60;;;1.00;;
59998;SDS011;45859;51.378;6.736;2022-09-21T15:46:55;2.35;;;1.00;;
59998;SDS011;45859;51.378;6.736;2022-09-21T15:49:24;2.10;;;0.70;;
59998;SDS011;45859;51.378;6.736;2022-09-21T15:52:03;3.37;;;0.90;;
59998;SDS011;45859;51.378;6.736;2022-09-21T15:54:54;4.53;;;0.90;;
59998;SDS011;45859;51.378;6.736;2022-09-21T16:03:04;3.60;;;1.03;;
59998;SDS011;45859;51.378;6.736;2022-09-21T16:08:41;2.85;;;0.80;;
59998;SDS011;45859;51.378;6.736;2022-09-21T16:14:10;4.70;;;0.90;;
59998;SDS011;45859;51.378;6.736;2022-09-21T16:24:50;4.50;;;1.30;;
59998;SDS011;45859;51.378;6.736;2022-09-21T16:27:20;4.30;;;1.30;;
59998;SDS011;45859;51.378;6.736;2022-09-21T16:29:48;4.20;;;1.40;;
59998;SDS011;45859;51.378;6.736;2022-09-21T16:32:20;2.80;;;1.20;;
59998;SDS011;45859;51.378;6.736;2022-09-21T16:34:51;1.67;;;1.00;;
59998;SDS011;45859;51.378;6.736;2022-09-21T16:39:46;3.47;;;1.77;;
59998;SDS011;45859;51.378;6.736;2022-09-21T16:42:11;3.00;;;1.50;;
59998;SDS011;45859;51.378;6.736;2022-09-21T16:44:37;3.63;;;1.60;;
59998;SDS011;45859;51.378;6.736;2022-09-21T16:47:13;80.40;;;32.97;;
59998;SDS011;45859;51.378;6.736;2022-09-21T16:49:50;2.43;;;1.20;;
59998;SDS011;45859;51.378;6.736;2022-09-21T16:52:22;15.80;;;3.83;;
59998;SDS011;45859;51.378;6.736;2022-09-21T16:54:48;3.83;;;2.20;;
59998;SDS011;45859;51.378;6.736;2022-09-21T16:57:15;6.73;;;2.10;;
59998;SDS011;45859;51.378;6.736;2022-09-21T16:59:41;10.03;;;1.63;;
59998;SDS011;45859;51.378;6.736;2022-09-21T17:02:11;3.23;;;1.30;;
59998;SDS011;45859;51.378;6.736;2022-09-21T17:07:04;5.93;;;1.33;;
59998;SDS011;45859;51.378;6.736;2022-09-21T17:09:30;17.90;;;2.77;;
59998;SDS011;45859;51.378;6.736;2022-09-21T17:12:02;29.97;;;3.77;;
59998;SDS011;45859;51.378;6.736;2022-09-21T17:14:31;59.83;;;6.83;;
59998;SDS011;45859;51.378;6.736;2022-09-21T17:17:10;224.90;;;21.83;;
59998;SDS011;45859;51.378;6.736;2022-09-21T17:19:44;241.00;;;21.73;;
59998;SDS011;45859;51.378;6.736;2022-09-21T17:22:19;40.07;;;5.67;;
59998;SDS011;45859;51.378;6.736;2022-09-21T17:24:49;21.03;;;2.83;;
59998;SDS011;45859;51.378;6.736;2022-09-21T17:27:22;7.90;;;1.80;;
59998;SDS011;45859;51.378;6.736;2022-09-21T17:29:50;6.23;;;1.77;;
59998;SDS011;45859;51.378;6.736;2022-09-21T17:32:18;48.33;;;6.07;;
59998;SDS011;45859;51.378;6.736;2022-09-21T17:34:45;32.27;;;4.33;;
59998;SDS011;45859;51.378;6.736;2022-09-21T17:37:17;9.20;;;1.90;;
59998;SDS011;45859;51.378;6.736;2022-09-21T17:39:42;6.80;;;2.10;;
59998;SDS011;45859;51.378;6.736;2022-09-21T17:42:19;10.70;;;3.00;;
59998;SDS011;45859;51.378;6.736;2022-09-21T17:47:49;5.50;;;2.05;;
59998;SDS011;45859;51.378;6.736;2022-09-21T17:50:25;7.53;;;3.20;;
59998;SDS011;45859;51.378;6.736;2022-09-21T17:52:53;4.93;;;2.83;;
59998;SDS011;45859;51.378;6.736;2022-09-21T17:55:40;4.87;;;2.80;;
59998;SDS011;45859;51.378;6.736;2022-09-21T17:58:26;8.10;;;2.93;;
59998;SDS011;45859;51.378;6.736;2022-09-21T18:01:06;7.13;;;2.60;;
59998;SDS011;45859;51.378;6.736;2022-09-21T18:03:41;5.83;;;2.60;;
59998;SDS011;45859;51.378;6.736;2022-09-21T18:06:08;4.77;;;2.43;;
59998;SDS011;45859;51.378;6.736;2022-09-21T18:08:36;5.77;;;2.53;;
59998;SDS011;45859;51.378;6.736;2022-09-21T18:21:29;6.13;;;3.40;;
59998;SDS011;45859;51.378;6.736;2022-09-21T18:26:42;8.55;;;4.43;;
59998;SDS011;45859;51.378;6.736;2022-09-21T18:29:14;8.57;;;4.80;;
59998;SDS011;45859;51.378;6.736;2022-09-21T18:31:50;11.17;;;3.07;;
59998;SDS011;45859;51.378;6.736;2022-09-21T18:37:00;9.63;;;4.80;;
59998;SDS011;45859;51.378;6.736;2022-09-21T18:45:27;7.67;;;3.60;;
59998;SDS011;45859;51.378;6.736;2022-09-21T18:50:47;7.60;;;3.43;;
59998;SDS011;45859;51.378;6.736;2022-09-21T18:56:09;5.27;;;3.50;;
59998;SDS011;45859;51.378;6.736;2022-09-21T18:58:36;5.13;;;3.17;;
59998;SDS011;45859;51.378;6.736;2022-09-21T19:01:03;6.67;;;3.40;;
59998;SDS011;45859;51.378;6.736;2022-09-21T19:03:29;5.33;;;3.50;;
59998;SDS011;45859;51.378;6.736;2022-09-21T19:08:53;8.53;;;4.03;;
59998;SDS011;45859;51.378;6.736;2022-09-21T19:11:26;6.23;;;4.40;;
59998;SDS011;45859;51.378;6.736;2022-09-21T19:17:00;6.70;;;3.70;;
59998;SDS011;45859;51.378;6.736;2022-09-21T19:22:20;2.90;;;2.03;;
59998;SDS011;45859;51.378;6.736;2022-09-21T19:24:59;4.53;;;2.13;;
59998;SDS011;45859;51.378;6.736;2022-09-21T19:32:42;6.63;;;2.73;;
59998;SDS011;45859;51.378;6.736;2022-09-21T19:35:12;6.20;;;2.53;;
59998;SDS011;45859;51.378;6.736;2022-09-21T19:37:42;6.27;;;2.27;;
59998;SDS011;45859;51.378;6.736;2022-09-21T19:40:08;4.77;;;2.17;;
59998;SDS011;45859;51.378;6.736;2022-09-21T19:42:42;6.33;;;3.93;;
59998;SDS011;45859;51.378;6.736;2022-09-21T19:48:19;3.03;;;2.57;;
59998;SDS011;45859;51.378;6.736;2022-09-21T19:50:53;8.48;;;4.10;;
59998;SDS011;45859;51.378;6.736;2022-09-21T19:53:21;8.30;;;3.10;;
59998;SDS011;45859;51.378;6.736;2022-09-21T19:56:13;7.30;;;4.20;;
59998;SDS011;45859;51.378;6.736;2022-09-21T19:58:58;3.33;;;2.40;;
59998;SDS011;45859;51.378;6.736;2022-09-21T20:01:45;7.93;;;2.80;;
59998;SDS011;45859;51.378;6.736;2022-09-21T20:04:25;5.93;;;2.50;;
59998;SDS011;45859;51.378;6.736;2022-09-21T20:07:03;4.13;;;2.75;;